sensor_id;sensor_type;location;lat;lon;timestamp;P1;durP1;ratioP1;P2;durP2;ratioP2
19002;SDS011;9634;51.040;13.794;2022-12-17T00:01:08;71.07;;;27.67;;
19002;SDS011;9634;51.040;13.794;2022-12-17T00:06:27;58.03;;;27.03;;
19002;SDS011;9634;51.040;13.794;2022-12-17T00:11:47;66.73;;;27.97;;
19002;SDS011;9634;51.040;13.794;2022-12-17T00:17:09;64.20;;;28.33;;
19002;SDS011;9634;51.040;13.794;2022-12-17T00:22:29;63.43;;;27.43;;
19002;SDS011;9634;51.040;13.794;2022-12-17T00:27:57;68.97;;;28.97;;
19002;SDS011;9634;51.040;13.794;2022-12-17T00:33:18;68.73;;;29.03;;
19002;SDS011;9634;51.040;13.794;2022-12-17T00:38:34;68.53;;;27.90;;
19002;SDS011;9634;51.040;13.794;2022-12-17T00:43:53;60.80;;;24.60;;
19002;SDS011;9634;51.040;13.794;2022-12-17T00:49:14;69.07;;;29.20;;
19002;SDS011;9634;51.040;13.794;2022-12-17T00:54:34;71.20;;;29.20;;
19002;SDS011;9634;51.040;13.794;2022-12-17T00:59:54;63.80;;;27.20;;
19002;SDS011;9634;51.040;13.794;2022-12-17T01:05:14;67.40;;;27.97;;
19002;SDS011;9634;51.040;13.794;2022-12-17T01:10:35;71.63;;;28.73;;
19002;SDS011;9634;51.040;13.794;2022-12-17T01:15:55;64.37;;;28.10;;
19002;SDS011;9634;51.040;13.794;2022-12-17T01:21:22;68.40;;;27.67;;
19002;SDS011;9634;51.040;13.794;2022-12-17T01:26:41;66.33;;;28.63;;
19002;SDS011;9634;51.040;13.794;2022-12-17T01:32:01;70.23;;;29.93;;
19002;SDS011;9634;51.040;13.794;2022-12-17T01:37:25;67.33;;;28.40;;
19002;SDS011;9634;51.040;13.794;2022-12-17T01:42:45;64.30;;;29.27;;
19002;SDS011;9634;51.040;13.794;2022-12-17T01:48:04;65.43;;;28.63;;
19002;SDS011;9634;51.040;13.794;2022-12-17T01:53:32;69.17;;;30.43;;
19002;SDS011;9634;51.040;13.794;2022-12-17T01:58:54;61.63;;;27.53;;
19002;SDS011;9634;51.040;13.794;2022-12-17T02:04:15;64.50;;;28.17;;
19002;SDS011;9634;51.040;13.794;2022-12-17T02:09:37;69.03;;;29.83;;
19002;SDS011;9634;51.040;13.794;2022-12-17T02:15:06;70.50;;;28.93;;
19002;SDS011;9634;51.040;13.794;2022-12-17T02:20:36;69.93;;;29.60;;
19002;SDS011;9634;51.040;13.794;2022-12-17T02:26:03;68.13;;;30.07;;
19002;SDS011;9634;51.040;13.794;2022-12-17T02:31:30;65.07;;;28.47;;
19002;SDS011;9634;51.040;13.794;2022-12-17T02:36:51;69.83;;;29.33;;
19002;SDS011;9634;51.040;13.794;2022-12-17T02:42:11;74.80;;;31.13;;
19002;SDS011;9634;51.040;13.794;2022-12-17T02:47:33;70.50;;;30.20;;
19002;SDS011;9634;51.040;13.794;2022-12-17T02:52:54;76.50;;;30.23;;
19002;SDS011;9634;51.040;13.794;2022-12-17T02:58:16;64.23;;;29.93;;
19002;SDS011;9634;51.040;13.794;2022-12-17T03:03:37;67.43;;;29.03;;
19002;SDS011;9634;51.040;13.794;2022-12-17T03:08:56;71.33;;;30.83;;
19002;SDS011;9634;51.040;13.794;2022-12-17T03:14:16;66.97;;;29.77;;
19002;SDS011;9634;51.040;13.794;2022-12-17T03:19:37;71.90;;;30.90;;
19002;SDS011;9634;51.040;13.794;2022-12-17T03:24:53;71.97;;;29.63;;
19002;SDS011;9634;51.040;13.794;2022-12-17T03:30:12;65.57;;;28.87;;
19002;SDS011;9634;51.040;13.794;2022-12-17T03:35:34;73.97;;;30.50;;
19002;SDS011;9634;51.040;13.794;2022-12-17T03:40:53;72.80;;;29.97;;
19002;SDS011;9634;51.040;13.794;2022-12-17T03:46:16;69.93;;;29.57;;
19002;SDS011;9634;51.040;13.794;2022-12-17T03:51:39;73.03;;;29.83;;
19002;SDS011;9634;51.040;13.794;2022-12-17T03:56:58;68.67;;;29.13;;
19002;SDS011;9634;51.040;13.794;2022-12-17T04:02:18;73.50;;;29.80;;
19002;SDS011;9634;51.040;13.794;2022-12-17T04:07:53;62.90;;;28.53;;
19002;SDS011;9634;51.040;13.794;2022-12-17T04:13:13;68.20;;;28.93;;
19002;SDS011;9634;51.040;13.794;2022-12-17T04:18:35;77.90;;;30.57;;
19002;SDS011;9634;51.040;13.794;2022-12-17T04:23:55;67.67;;;29.43;;
19002;SDS011;9634;51.040;13.794;2022-12-17T04:29:15;74.67;;;30.30;;
19002;SDS011;9634;51.040;13.794;2022-12-17T04:34:34;72.93;;;30.07;;
19002;SDS011;9634;51.040;13.794;2022-12-17T04:39:55;69.43;;;29.17;;
19002;SDS011;9634;51.040;13.794;2022-12-17T04:45:15;63.70;;;30.37;;
19002;SDS011;9634;51.040;13.794;2022-12-17T04:50:49;72.43;;;30.60;;
19002;SDS011;9634;51.040;13.794;2022-12-17T04:56:10;71.47;;;30.20;;
19002;SDS011;9634;51.040;13.794;2022-12-17T05:01:29;65.30;;;29.27;;
19002;SDS011;9634;51.040;13.794;2022-12-17T05:06:49;62.30;;;27.40;;
19002;SDS011;9634;51.040;13.794;2022-12-17T05:12:10;67.93;;;28.50;;
19002;SDS011;9634;51.040;13.794;2022-12-17T05:17:29;71.70;;;29.20;;
19002;SDS011;9634;51.040;13.794;2022-12-17T05:22:51;70.63;;;29.77;;
19002;SDS011;9634;51.040;13.794;2022-12-17T05:28:13;70.43;;;28.00;;
19002;SDS011;9634;51.040;13.794;2022-12-17T05:33:33;66.23;;;28.13;;
19002;SDS011;9634;51.040;13.794;2022-12-17T05:38:51;67.07;;;27.73;;
19002;SDS011;9634;51.040;13.794;2022-12-17T05:44:12;76.93;;;30.90;;
19002;SDS011;9634;51.040;13.794;2022-12-17T05:49:32;78.83;;;31.87;;
19002;SDS011;9634;51.040;13.794;2022-12-17T05:54:51;74.57;;;28.90;;
19002;SDS011;9634;51.040;13.794;2022-12-17T06:00:12;67.80;;;30.10;;
19002;SDS011;9634;51.040;13.794;2022-12-17T06:05:32;68.43;;;27.87;;
19002;SDS011;9634;51.040;13.794;2022-12-17T06:11:03;69.00;;;29.40;;
19002;SDS011;9634;51.040;13.794;2022-12-17T06:16:25;77.67;;;33.47;;
19002;SDS011;9634;51.040;13.794;2022-12-17T06:21:44;73.80;;;28.87;;
19002;SDS011;9634;51.040;13.794;2022-12-17T06:27:04;69.03;;;29.23;;
19002;SDS011;9634;51.040;13.794;2022-12-17T06:32:25;68.97;;;29.47;;
19002;SDS011;9634;51.040;13.794;2022-12-17T06:37:44;74.50;;;28.83;;
19002;SDS011;9634;51.040;13.794;2022-12-17T06:43:04;73.83;;;29.60;;
19002;SDS011;9634;51.040;13.794;2022-12-17T06:48:25;75.10;;;30.80;;
19002;SDS011;9634;51.040;13.794;2022-12-17T06:53:46;73.77;;;29.57;;
19002;SDS011;9634;51.040;13.794;2022-12-17T06:59:06;79.87;;;29.77;;
19002;SDS011;9634;51.040;13.794;2022-12-17T07:04:28;68.70;;;28.57;;
19002;SDS011;9634;51.040;13.794;2022-12-17T07:09:47;70.00;;;29.30;;
19002;SDS011;9634;51.040;13.794;2022-12-17T07:15:07;74.20;;;29.27;;
19002;SDS011;9634;51.040;13.794;2022-12-17T07:20:28;69.47;;;29.63;;
19002;SDS011;9634;51.040;13.794;2022-12-17T07:25:48;69.30;;;29.93;;
19002;SDS011;9634;51.040;13.794;2022-12-17T07:31:08;77.63;;;30.67;;
19002;SDS011;9634;51.040;13.794;2022-12-17T07:36:28;75.40;;;29.67;;
19002;SDS011;9634;51.040;13.794;2022-12-17T07:41:48;74.97;;;30.13;;
19002;SDS011;9634;51.040;13.794;2022-12-17T07:47:07;79.20;;;31.83;;
19002;SDS011;9634;51.040;13.794;2022-12-17T07:52:28;73.07;;;30.93;;
19002;SDS011;9634;51.040;13.794;2022-12-17T07:57:56;75.10;;;31.03;;
19002;SDS011;9634;51.040;13.794;2022-12-17T08:03:16;75.97;;;30.33;;
19002;SDS011;9634;51.040;13.794;2022-12-17T08:08:37;76.83;;;32.47;;
19002;SDS011;9634;51.040;13.794;2022-12-17T08:13:57;75.63;;;31.73;;
19002;SDS011;9634;51.040;13.794;2022-12-17T08:19:16;77.37;;;31.83;;
19002;SDS011;9634;51.040;13.794;2022-12-17T08:24:52;82.50;;;32.40;;
19002;SDS011;9634;51.040;13.794;2022-12-17T08:30:12;83.07;;;32.17;;
19002;SDS011;9634;51.040;13.794;2022-12-17T08:35:31;81.90;;;31.90;;
19002;SDS011;9634;51.040;13.794;2022-12-17T08:40:53;83.00;;;32.70;;
19002;SDS011;9634;51.040;13.794;2022-12-17T08:46:12;83.30;;;34.17;;
19002;SDS011;9634;51.040;13.794;2022-12-17T08:51:32;97.17;;;35.13;;
19002;SDS011;9634;51.040;13.794;2022-12-17T08:56:53;90.07;;;36.00;;
19002;SDS011;9634;51.040;13.794;2022-12-17T09:02:13;89.90;;;34.97;;
19002;SDS011;9634;51.040;13.794;2022-12-17T09:07:33;91.90;;;34.77;;
19002;SDS011;9634;51.040;13.794;2022-12-17T09:12:54;100.20;;;36.37;;
19002;SDS011;9634;51.040;13.794;2022-12-17T09:18:16;93.60;;;32.13;;
19002;SDS011;9634;51.040;13.794;2022-12-17T09:23:37;102.37;;;36.13;;
19002;SDS011;9634;51.040;13.794;2022-12-17T09:28:57;108.10;;;33.30;;
19002;SDS011;9634;51.040;13.794;2022-12-17T09:34:17;98.27;;;33.47;;
19002;SDS011;9634;51.040;13.794;2022-12-17T09:39:37;112.23;;;34.70;;
19002;SDS011;9634;51.040;13.794;2022-12-17T09:44:58;101.87;;;31.60;;
19002;SDS011;9634;51.040;13.794;2022-12-17T09:50:24;100.80;;;33.57;;
19002;SDS011;9634;51.040;13.794;2022-12-17T09:55:45;98.03;;;30.63;;
19002;SDS011;9634;51.040;13.794;2022-12-17T10:01:12;94.43;;;31.20;;
19002;SDS011;9634;51.040;13.794;2022-12-17T10:06:34;102.17;;;33.47;;
19002;SDS011;9634;51.040;13.794;2022-12-17T10:11:54;95.20;;;27.83;;
19002;SDS011;9634;51.040;13.794;2022-12-17T10:17:17;84.60;;;28.63;;
19002;SDS011;9634;51.040;13.794;2022-12-17T10:22:41;79.27;;;25.40;;
19002;SDS011;9634;51.040;13.794;2022-12-17T10:28:03;73.27;;;23.83;;
19002;SDS011;9634;51.040;13.794;2022-12-17T10:33:25;72.97;;;23.53;;
19002;SDS011;9634;51.040;13.794;2022-12-17T10:38:56;68.90;;;22.90;;
19002;SDS011;9634;51.040;13.794;2022-12-17T10:44:20;69.03;;;24.67;;
19002;SDS011;9634;51.040;13.794;2022-12-17T10:49:42;81.33;;;26.20;;
19002;SDS011;9634;51.040;13.794;2022-12-17T10:55:03;75.00;;;27.00;;
19002;SDS011;9634;51.040;13.794;2022-12-17T11:00:38;84.97;;;27.97;;
19002;SDS011;9634;51.040;13.794;2022-12-17T11:06:00;82.70;;;26.37;;
19002;SDS011;9634;51.040;13.794;2022-12-17T11:11:20;88.63;;;26.73;;
19002;SDS011;9634;51.040;13.794;2022-12-17T11:16:40;93.77;;;27.30;;
19002;SDS011;9634;51.040;13.794;2022-12-17T11:22:06;83.37;;;26.87;;
19002;SDS011;9634;51.040;13.794;2022-12-17T11:27:38;85.57;;;28.10;;
19002;SDS011;9634;51.040;13.794;2022-12-17T11:33:03;92.23;;;29.13;;
19002;SDS011;9634;51.040;13.794;2022-12-17T11:38:33;90.23;;;30.50;;
19002;SDS011;9634;51.040;13.794;2022-12-17T11:43:58;87.97;;;28.07;;
19002;SDS011;9634;51.040;13.794;2022-12-17T11:49:27;84.77;;;27.70;;
19002;SDS011;9634;51.040;13.794;2022-12-17T11:54:55;91.67;;;29.10;;
19002;SDS011;9634;51.040;13.794;2022-12-17T12:00:21;93.67;;;30.10;;
19002;SDS011;9634;51.040;13.794;2022-12-17T12:05:44;89.03;;;29.97;;
19002;SDS011;9634;51.040;13.794;2022-12-17T12:11:13;92.77;;;29.43;;
19002;SDS011;9634;51.040;13.794;2022-12-17T12:16:43;103.00;;;32.40;;
19002;SDS011;9634;51.040;13.794;2022-12-17T12:22:12;96.30;;;31.13;;
19002;SDS011;9634;51.040;13.794;2022-12-17T12:27:39;85.73;;;29.27;;
19002;SDS011;9634;51.040;13.794;2022-12-17T12:33:14;96.03;;;31.40;;
19002;SDS011;9634;51.040;13.794;2022-12-17T12:38:42;84.67;;;30.27;;
19002;SDS011;9634;51.040;13.794;2022-12-17T12:44:04;83.93;;;28.03;;
19002;SDS011;9634;51.040;13.794;2022-12-17T12:49:36;79.67;;;28.33;;
19002;SDS011;9634;51.040;13.794;2022-12-17T12:55:02;86.50;;;28.93;;
19002;SDS011;9634;51.040;13.794;2022-12-17T13:00:24;82.00;;;31.03;;
19002;SDS011;9634;51.040;13.794;2022-12-17T13:05:47;67.23;;;26.43;;
19002;SDS011;9634;51.040;13.794;2022-12-17T13:10:48;77.50;;;26.37;;
19002;SDS011;9634;51.040;13.794;2022-12-17T13:15:54;61.50;;;23.90;;
19002;SDS011;9634;51.040;13.794;2022-12-17T13:21:00;65.13;;;24.43;;
19002;SDS011;9634;51.040;13.794;2022-12-17T13:26:15;66.47;;;24.60;;
19002;SDS011;9634;51.040;13.794;2022-12-17T13:31:22;63.57;;;24.73;;
19002;SDS011;9634;51.040;13.794;2022-12-17T13:36:29;54.93;;;22.60;;
19002;SDS011;9634;51.040;13.794;2022-12-17T13:41:37;55.03;;;21.93;;
19002;SDS011;9634;51.040;13.794;2022-12-17T13:46:41;60.03;;;23.67;;
19002;SDS011;9634;51.040;13.794;2022-12-17T13:51:45;51.37;;;21.60;;
19002;SDS011;9634;51.040;13.794;2022-12-17T13:56:48;51.97;;;21.00;;
19002;SDS011;9634;51.040;13.794;2022-12-17T14:01:52;49.17;;;20.43;;
19002;SDS011;9634;51.040;13.794;2022-12-17T14:06:55;49.83;;;21.57;;
19002;SDS011;9634;51.040;13.794;2022-12-17T14:12:00;45.87;;;19.60;;
19002;SDS011;9634;51.040;13.794;2022-12-17T14:17:24;41.83;;;18.57;;
19002;SDS011;9634;51.040;13.794;2022-12-17T14:22:30;44.73;;;18.23;;
19002;SDS011;9634;51.040;13.794;2022-12-17T14:27:35;38.93;;;17.33;;
19002;SDS011;9634;51.040;13.794;2022-12-17T14:32:39;42.30;;;18.63;;
19002;SDS011;9634;51.040;13.794;2022-12-17T14:37:45;42.43;;;18.00;;
19002;SDS011;9634;51.040;13.794;2022-12-17T14:42:47;38.67;;;16.70;;
19002;SDS011;9634;51.040;13.794;2022-12-17T14:47:53;37.33;;;17.60;;
19002;SDS011;9634;51.040;13.794;2022-12-17T14:52:57;35.43;;;15.70;;
19002;SDS011;9634;51.040;13.794;2022-12-17T14:58:14;40.57;;;16.10;;
19002;SDS011;9634;51.040;13.794;2022-12-17T15:03:21;38.00;;;15.80;;
19002;SDS011;9634;51.040;13.794;2022-12-17T15:08:25;39.57;;;15.93;;
19002;SDS011;9634;51.040;13.794;2022-12-17T15:13:34;36.73;;;15.90;;
19002;SDS011;9634;51.040;13.794;2022-12-17T15:18:38;39.33;;;16.47;;
19002;SDS011;9634;51.040;13.794;2022-12-17T15:23:41;44.00;;;15.33;;
19002;SDS011;9634;51.040;13.794;2022-12-17T15:28:45;29.60;;;13.57;;
19002;SDS011;9634;51.040;13.794;2022-12-17T15:33:48;39.70;;;16.37;;
19002;SDS011;9634;51.040;13.794;2022-12-17T15:38:50;40.87;;;15.53;;
19002;SDS011;9634;51.040;13.794;2022-12-17T15:43:53;34.30;;;16.27;;
19002;SDS011;9634;51.040;13.794;2022-12-17T15:48:56;40.13;;;16.47;;
19002;SDS011;9634;51.040;13.794;2022-12-17T15:53:58;38.93;;;16.10;;
19002;SDS011;9634;51.040;13.794;2022-12-17T15:59:00;38.33;;;16.17;;
19002;SDS011;9634;51.040;13.794;2022-12-17T16:04:04;40.53;;;17.00;;
19002;SDS011;9634;51.040;13.794;2022-12-17T16:09:06;38.73;;;15.93;;
19002;SDS011;9634;51.040;13.794;2022-12-17T16:14:09;38.37;;;16.27;;
19002;SDS011;9634;51.040;13.794;2022-12-17T16:19:12;37.93;;;16.40;;
19002;SDS011;9634;51.040;13.794;2022-12-17T16:24:14;38.67;;;16.03;;
19002;SDS011;9634;51.040;13.794;2022-12-17T16:29:17;39.33;;;16.73;;
19002;SDS011;9634;51.040;13.794;2022-12-17T16:34:20;42.40;;;17.17;;
19002;SDS011;9634;51.040;13.794;2022-12-17T16:39:23;42.13;;;18.00;;
19002;SDS011;9634;51.040;13.794;2022-12-17T16:44:25;40.77;;;17.57;;
19002;SDS011;9634;51.040;13.794;2022-12-17T16:49:28;36.87;;;17.17;;
19002;SDS011;9634;51.040;13.794;2022-12-17T16:54:31;37.23;;;15.67;;
19002;SDS011;9634;51.040;13.794;2022-12-17T16:59:33;36.33;;;16.37;;
19002;SDS011;9634;51.040;13.794;2022-12-17T17:04:37;43.23;;;16.03;;
19002;SDS011;9634;51.040;13.794;2022-12-17T17:09:39;41.27;;;16.43;;
19002;SDS011;9634;51.040;13.794;2022-12-17T17:14:41;41.50;;;16.90;;
19002;SDS011;9634;51.040;13.794;2022-12-17T17:19:45;41.97;;;18.07;;
19002;SDS011;9634;51.040;13.794;2022-12-17T17:24:47;40.53;;;17.57;;
19002;SDS011;9634;51.040;13.794;2022-12-17T17:29:50;43.43;;;18.53;;
19002;SDS011;9634;51.040;13.794;2022-12-17T17:34:53;47.10;;;19.77;;
19002;SDS011;9634;51.040;13.794;2022-12-17T17:39:55;48.77;;;18.77;;
19002;SDS011;9634;51.040;13.794;2022-12-17T17:44:58;40.03;;;18.17;;
19002;SDS011;9634;51.040;13.794;2022-12-17T17:50:01;42.23;;;18.37;;
19002;SDS011;9634;51.040;13.794;2022-12-17T17:55:04;43.30;;;18.23;;
19002;SDS011;9634;51.040;13.794;2022-12-17T18:00:08;46.50;;;18.60;;
19002;SDS011;9634;51.040;13.794;2022-12-17T18:05:16;38.87;;;17.17;;
19002;SDS011;9634;51.040;13.794;2022-12-17T18:10:18;39.57;;;16.87;;
19002;SDS011;9634;51.040;13.794;2022-12-17T18:15:20;41.40;;;15.80;;
19002;SDS011;9634;51.040;13.794;2022-12-17T18:20:24;38.40;;;16.20;;
19002;SDS011;9634;51.040;13.794;2022-12-17T18:25:26;39.13;;;17.37;;
19002;SDS011;9634;51.040;13.794;2022-12-17T18:30:28;41.83;;;16.53;;
19002;SDS011;9634;51.040;13.794;2022-12-17T18:35:32;41.10;;;17.23;;
19002;SDS011;9634;51.040;13.794;2022-12-17T18:40:35;39.80;;;16.07;;
19002;SDS011;9634;51.040;13.794;2022-12-17T18:45:37;43.83;;;17.93;;
19002;SDS011;9634;51.040;13.794;2022-12-17T18:50:40;44.83;;;17.93;;
19002;SDS011;9634;51.040;13.794;2022-12-17T18:55:43;45.37;;;17.43;;
19002;SDS011;9634;51.040;13.794;2022-12-17T19:00:45;44.43;;;17.50;;
19002;SDS011;9634;51.040;13.794;2022-12-17T19:05:50;43.97;;;17.87;;
19002;SDS011;9634;51.040;13.794;2022-12-17T19:10:53;43.30;;;17.87;;
19002;SDS011;9634;51.040;13.794;2022-12-17T19:15:55;43.73;;;17.53;;
19002;SDS011;9634;51.040;13.794;2022-12-17T19:20:59;45.53;;;18.87;;
19002;SDS011;9634;51.040;13.794;2022-12-17T19:26:05;44.03;;;18.23;;
19002;SDS011;9634;51.040;13.794;2022-12-17T19:31:09;47.77;;;19.57;;
19002;SDS011;9634;51.040;13.794;2022-12-17T19:36:14;38.73;;;17.33;;
19002;SDS011;9634;51.040;13.794;2022-12-17T19:41:18;48.87;;;21.20;;
19002;SDS011;9634;51.040;13.794;2022-12-17T19:46:21;52.03;;;20.63;;
19002;SDS011;9634;51.040;13.794;2022-12-17T19:51:26;52.70;;;20.97;;
19002;SDS011;9634;51.040;13.794;2022-12-17T19:56:30;56.40;;;22.07;;
19002;SDS011;9634;51.040;13.794;2022-12-17T20:01:33;62.97;;;25.17;;
19002;SDS011;9634;51.040;13.794;2022-12-17T20:06:38;59.57;;;24.60;;
19002;SDS011;9634;51.040;13.794;2022-12-17T20:11:40;58.83;;;23.90;;
19002;SDS011;9634;51.040;13.794;2022-12-17T20:16:46;61.33;;;24.47;;
19002;SDS011;9634;51.040;13.794;2022-12-17T20:21:51;59.50;;;24.53;;
19002;SDS011;9634;51.040;13.794;2022-12-17T20:26:55;62.63;;;25.47;;
19002;SDS011;9634;51.040;13.794;2022-12-17T20:31:57;61.13;;;25.37;;
19002;SDS011;9634;51.040;13.794;2022-12-17T20:37:03;73.97;;;28.47;;
19002;SDS011;9634;51.040;13.794;2022-12-17T20:42:05;67.60;;;27.10;;
19002;SDS011;9634;51.040;13.794;2022-12-17T20:47:08;76.23;;;26.83;;
19002;SDS011;9634;51.040;13.794;2022-12-17T20:52:12;62.83;;;25.97;;
19002;SDS011;9634;51.040;13.794;2022-12-17T20:57:14;61.10;;;24.90;;
19002;SDS011;9634;51.040;13.794;2022-12-17T21:02:16;60.00;;;27.07;;
19002;SDS011;9634;51.040;13.794;2022-12-17T21:07:20;67.30;;;28.40;;
19002;SDS011;9634;51.040;13.794;2022-12-17T21:12:22;67.90;;;26.23;;
19002;SDS011;9634;51.040;13.794;2022-12-17T21:17:44;58.43;;;23.53;;
19002;SDS011;9634;51.040;13.794;2022-12-17T21:22:48;56.30;;;23.13;;
19002;SDS011;9634;51.040;13.794;2022-12-17T21:27:50;55.10;;;22.00;;
19002;SDS011;9634;51.040;13.794;2022-12-17T21:32:53;52.67;;;20.30;;
19002;SDS011;9634;51.040;13.794;2022-12-17T21:37:57;52.30;;;21.00;;
19002;SDS011;9634;51.040;13.794;2022-12-17T21:42:59;55.77;;;21.07;;
19002;SDS011;9634;51.040;13.794;2022-12-17T21:48:04;57.57;;;22.03;;
19002;SDS011;9634;51.040;13.794;2022-12-17T21:53:09;51.23;;;20.73;;
19002;SDS011;9634;51.040;13.794;2022-12-17T21:58:12;55.97;;;20.77;;
19002;SDS011;9634;51.040;13.794;2022-12-17T22:03:15;51.37;;;20.40;;
19002;SDS011;9634;51.040;13.794;2022-12-17T22:08:19;51.00;;;21.17;;
19002;SDS011;9634;51.040;13.794;2022-12-17T22:13:21;52.57;;;20.60;;
19002;SDS011;9634;51.040;13.794;2022-12-17T22:18:41;48.90;;;21.07;;
19002;SDS011;9634;51.040;13.794;2022-12-17T22:23:45;56.27;;;22.87;;
19002;SDS011;9634;51.040;13.794;2022-12-17T22:28:48;52.73;;;19.83;;
19002;SDS011;9634;51.040;13.794;2022-12-17T22:33:50;54.63;;;20.67;;
19002;SDS011;9634;51.040;13.794;2022-12-17T22:38:54;58.77;;;22.70;;
19002;SDS011;9634;51.040;13.794;2022-12-17T22:43:58;57.60;;;22.87;;
19002;SDS011;9634;51.040;13.794;2022-12-17T22:49:00;59.53;;;23.67;;
19002;SDS011;9634;51.040;13.794;2022-12-17T22:54:04;56.43;;;22.33;;
19002;SDS011;9634;51.040;13.794;2022-12-17T22:59:07;62.07;;;23.50;;
19002;SDS011;9634;51.040;13.794;2022-12-17T23:04:11;66.72;;;28.20;;
19002;SDS011;9634;51.040;13.794;2022-12-17T23:09:16;55.23;;;22.90;;
19002;SDS011;9634;51.040;13.794;2022-12-17T23:14:19;59.37;;;23.00;;
19002;SDS011;9634;51.040;13.794;2022-12-17T23:19:22;61.27;;;22.70;;
19002;SDS011;9634;51.040;13.794;2022-12-17T23:24:25;61.67;;;23.70;;
19002;SDS011;9634;51.040;13.794;2022-12-17T23:29:27;62.43;;;21.83;;
19002;SDS011;9634;51.040;13.794;2022-12-17T23:34:30;59.20;;;21.57;;
19002;SDS011;9634;51.040;13.794;2022-12-17T23:39:33;49.33;;;20.97;;
19002;SDS011;9634;51.040;13.794;2022-12-17T23:44:35;48.90;;;18.83;;
19002;SDS011;9634;51.040;13.794;2022-12-17T23:49:38;50.77;;;20.03;;
19002;SDS011;9634;51.040;13.794;2022-12-17T23:54:41;56.97;;;22.03;;
19002;SDS011;9634;51.040;13.794;2022-12-17T23:59:43;54.03;;;20.27;;
